Hauptseite
METAR-TAF:

METAR-TAF

Flughäfen :

Boscombe Down, England

MoD Boscombe Down

Breite: 51-10N, Länge: 001-45W, Höhe: 124 m

Beobachtung

Neuester Wetterbericht von vor 1 Stunde und 2 Minuten, um 04:50 UTC
Wind 10 kt aus West/Südwest
Temperatur 6°C
Luftfeuchtigkeit 87%
Luftdruck 1016 hPa
Sichtweite 10 km oder mehr

METAR: EGDM 260450Z AUTO 24010KT 9999 SCT020/// BKN036/// 06/04 Q1016

Zeit: 06:52 (05:52 UTC)

Prognose

Neuester Wetterbericht von vor 13 Stunden und 21 Minuten, um 16:31 UTC
Gültige Prognose vom 25 um 18 UTC bis 25 um 23 UTC
Wind 13 kt aus West
Sichtweite 10 km oder mehr
Leicht bewölkt in der Höhe von 3000 ft

TAF: EGDM 251631Z 2518/2523 27013KT 9999 FEW030

Wetterbeobachtungen und Prognosen von mehr als 4000 Flughäfen (METAR und TAF Bericht).

Die verfügbaren Stationen werden durch gelbe und rote Markierungen auf der Karte dargestellt.

Führen Sie die Maus auf sie, um den Namen der Station zu sehen.

Darauf klicken, um die Beobachtung von Wetterbeobachtungen und Prognosen zu sehen.

Um die Karte zu ändern : klicken Sie auf den grünen Tasten mit einem schwarzen Kreuz Zum Vergrößern, auf den grünen Button mit einem Gedankenstrich zu verkleinern, oder auf die grünen Pfeile für benachbarte Karten.


METAR-TAF: